sensor_id;sensor_type;location;lat;lon;timestamp;P1;durP1;ratioP1;P2;durP2;ratioP2
52057;SDS011;38063;53.210;6.504;2023-04-06T00:00:54;10.25;;;6.03;;
52057;SDS011;38063;53.210;6.504;2023-04-06T00:03:20;11.85;;;6.55;;
52057;SDS011;38063;53.210;6.504;2023-04-06T00:05:46;8.75;;;5.43;;
52057;SDS011;38063;53.210;6.504;2023-04-06T00:08:13;11.68;;;6.10;;
52057;SDS011;38063;53.210;6.504;2023-04-06T00:10:39;13.73;;;6.60;;
52057;SDS011;38063;53.210;6.504;2023-04-06T00:13:05;10.43;;;6.05;;
52057;SDS011;38063;53.210;6.504;2023-04-06T00:15:31;10.23;;;6.25;;
52057;SDS011;38063;53.210;6.504;2023-04-06T00:17:56;10.90;;;6.25;;
52057;SDS011;38063;53.210;6.504;2023-04-06T00:20:22;9.90;;;6.32;;
52057;SDS011;38063;53.210;6.504;2023-04-06T00:22:48;10.50;;;6.28;;
52057;SDS011;38063;53.210;6.504;2023-04-06T00:25:13;11.93;;;6.22;;
52057;SDS011;38063;53.210;6.504;2023-04-06T00:27:40;9.15;;;6.68;;
52057;SDS011;38063;53.210;6.504;2023-04-06T00:30:06;11.95;;;7.05;;
52057;SDS011;38063;53.210;6.504;2023-04-06T00:32:32;10.52;;;6.32;;
52057;SDS011;38063;53.210;6.504;2023-04-06T00:34:58;7.80;;;6.10;;
52057;SDS011;38063;53.210;6.504;2023-04-06T00:37:24;10.65;;;6.32;;
52057;SDS011;38063;53.210;6.504;2023-04-06T00:39:50;9.68;;;6.47;;
52057;SDS011;38063;53.210;6.504;2023-04-06T00:42:18;9.50;;;6.22;;
52057;SDS011;38063;53.210;6.504;2023-04-06T00:44:53;9.40;;;5.88;;
52057;SDS011;38063;53.210;6.504;2023-04-06T00:47:21;11.57;;;6.50;;
52057;SDS011;38063;53.210;6.504;2023-04-06T00:49:47;13.93;;;6.43;;
52057;SDS011;38063;53.210;6.504;2023-04-06T00:52:13;11.20;;;6.82;;
52057;SDS011;38063;53.210;6.504;2023-04-06T00:54:40;12.13;;;6.20;;
52057;SDS011;38063;53.210;6.504;2023-04-06T00:57:06;11.07;;;6.35;;
52057;SDS011;38063;53.210;6.504;2023-04-06T00:59:32;10.48;;;6.60;;
52057;SDS011;38063;53.210;6.504;2023-04-06T01:01:58;11.65;;;6.13;;
52057;SDS011;38063;53.210;6.504;2023-04-06T01:04:23;14.00;;;6.63;;
52057;SDS011;38063;53.210;6.504;2023-04-06T01:06:50;14.73;;;6.70;;
52057;SDS011;38063;53.210;6.504;2023-04-06T01:09:16;10.07;;;6.20;;
52057;SDS011;38063;53.210;6.504;2023-04-06T01:11:42;8.75;;;6.07;;
52057;SDS011;38063;53.210;6.504;2023-04-06T01:14:08;12.02;;;6.22;;
52057;SDS011;38063;53.210;6.504;2023-04-06T01:16:34;12.38;;;6.60;;
52057;SDS011;38063;53.210;6.504;2023-04-06T01:19:00;9.45;;;6.18;;
52057;SDS011;38063;53.210;6.504;2023-04-06T01:21:26;9.55;;;6.18;;
52057;SDS011;38063;53.210;6.504;2023-04-06T01:23:51;8.82;;;6.13;;
52057;SDS011;38063;53.210;6.504;2023-04-06T01:26:17;9.65;;;6.43;;
52057;SDS011;38063;53.210;6.504;2023-04-06T01:28:43;11.77;;;6.25;;
52057;SDS011;38063;53.210;6.504;2023-04-06T01:31:10;8.90;;;6.15;;
52057;SDS011;38063;53.210;6.504;2023-04-06T01:33:36;10.85;;;6.15;;
52057;SDS011;38063;53.210;6.504;2023-04-06T01:36:03;9.32;;;6.38;;
52057;SDS011;38063;53.210;6.504;2023-04-06T01:38:29;8.90;;;6.10;;
52057;SDS011;38063;53.210;6.504;2023-04-06T01:40:55;12.75;;;6.85;;
52057;SDS011;38063;53.210;6.504;2023-04-06T01:43:21;10.35;;;5.78;;
52057;SDS011;38063;53.210;6.504;2023-04-06T01:45:47;11.68;;;6.63;;
52057;SDS011;38063;53.210;6.504;2023-04-06T01:48:13;14.98;;;6.32;;
52057;SDS011;38063;53.210;6.504;2023-04-06T01:50:38;11.63;;;6.10;;
52057;SDS011;38063;53.210;6.504;2023-04-06T01:53:04;13.98;;;6.43;;
52057;SDS011;38063;53.210;6.504;2023-04-06T01:55:30;11.88;;;6.97;;
52057;SDS011;38063;53.210;6.504;2023-04-06T01:57:55;10.35;;;6.60;;
52057;SDS011;38063;53.210;6.504;2023-04-06T02:00:21;10.50;;;6.50;;
52057;SDS011;38063;53.210;6.504;2023-04-06T02:02:47;9.10;;;6.20;;
52057;SDS011;38063;53.210;6.504;2023-04-06T02:05:13;16.50;;;7.45;;
52057;SDS011;38063;53.210;6.504;2023-04-06T02:07:38;10.55;;;6.57;;
52057;SDS011;38063;53.210;6.504;2023-04-06T02:10:04;11.13;;;6.57;;
52057;SDS011;38063;53.210;6.504;2023-04-06T02:12:36;13.13;;;7.13;;
52057;SDS011;38063;53.210;6.504;2023-04-06T02:15:01;13.10;;;6.40;;
52057;SDS011;38063;53.210;6.504;2023-04-06T02:17:28;12.88;;;6.47;;
52057;SDS011;38063;53.210;6.504;2023-04-06T02:19:54;9.63;;;7.07;;
52057;SDS011;38063;53.210;6.504;2023-04-06T02:22:19;12.00;;;6.55;;
52057;SDS011;38063;53.210;6.504;2023-04-06T02:24:45;11.32;;;7.45;;
52057;SDS011;38063;53.210;6.504;2023-04-06T02:27:11;11.23;;;7.60;;
52057;SDS011;38063;53.210;6.504;2023-04-06T02:29:38;10.52;;;7.03;;
52057;SDS011;38063;53.210;6.504;2023-04-06T02:32:04;11.10;;;6.90;;
52057;SDS011;38063;53.210;6.504;2023-04-06T02:34:30;12.65;;;7.35;;
52057;SDS011;38063;53.210;6.504;2023-04-06T02:36:56;14.45;;;8.10;;
52057;SDS011;38063;53.210;6.504;2023-04-06T02:39:21;12.18;;;7.82;;
52057;SDS011;38063;53.210;6.504;2023-04-06T02:41:47;13.40;;;7.57;;
52057;SDS011;38063;53.210;6.504;2023-04-06T02:44:13;13.18;;;8.55;;
52057;SDS011;38063;53.210;6.504;2023-04-06T02:46:39;12.60;;;7.43;;
52057;SDS011;38063;53.210;6.504;2023-04-06T02:49:05;11.07;;;7.50;;
52057;SDS011;38063;53.210;6.504;2023-04-06T02:51:31;11.15;;;7.45;;
52057;SDS011;38063;53.210;6.504;2023-04-06T02:53:56;14.23;;;7.78;;
52057;SDS011;38063;53.210;6.504;2023-04-06T02:56:22;11.40;;;7.32;;
52057;SDS011;38063;53.210;6.504;2023-04-06T02:58:47;11.60;;;7.40;;
52057;SDS011;38063;53.210;6.504;2023-04-06T03:01:13;13.90;;;7.82;;
52057;SDS011;38063;53.210;6.504;2023-04-06T03:03:39;11.48;;;7.57;;
52057;SDS011;38063;53.210;6.504;2023-04-06T03:06:05;14.15;;;7.68;;
52057;SDS011;38063;53.210;6.504;2023-04-06T03:08:31;11.95;;;7.63;;
52057;SDS011;38063;53.210;6.504;2023-04-06T03:10:57;13.82;;;7.95;;
52057;SDS011;38063;53.210;6.504;2023-04-06T03:13:22;13.68;;;7.45;;
52057;SDS011;38063;53.210;6.504;2023-04-06T03:15:48;10.75;;;6.88;;
52057;SDS011;38063;53.210;6.504;2023-04-06T03:18:14;10.13;;;6.93;;
52057;SDS011;38063;53.210;6.504;2023-04-06T03:20:40;12.23;;;7.60;;
52057;SDS011;38063;53.210;6.504;2023-04-06T03:23:05;13.60;;;7.15;;
52057;SDS011;38063;53.210;6.504;2023-04-06T03:25:31;11.15;;;7.18;;
52057;SDS011;38063;53.210;6.504;2023-04-06T03:27:57;10.77;;;7.07;;
52057;SDS011;38063;53.210;6.504;2023-04-06T03:30:22;14.45;;;7.85;;
52057;SDS011;38063;53.210;6.504;2023-04-06T03:32:48;11.02;;;7.30;;
52057;SDS011;38063;53.210;6.504;2023-04-06T03:35:14;13.35;;;7.78;;
52057;SDS011;38063;53.210;6.504;2023-04-06T03:37:40;11.07;;;7.40;;
52057;SDS011;38063;53.210;6.504;2023-04-06T03:40:05;14.40;;;7.10;;
52057;SDS011;38063;53.210;6.504;2023-04-06T03:42:31;9.40;;;7.03;;
52057;SDS011;38063;53.210;6.504;2023-04-06T03:44:58;9.40;;;7.15;;
52057;SDS011;38063;53.210;6.504;2023-04-06T03:47:24;11.00;;;7.00;;
52057;SDS011;38063;53.210;6.504;2023-04-06T03:49:50;13.63;;;8.10;;
52057;SDS011;38063;53.210;6.504;2023-04-06T03:52:16;11.88;;;7.60;;
52057;SDS011;38063;53.210;6.504;2023-04-06T03:54:41;12.20;;;7.43;;
52057;SDS011;38063;53.210;6.504;2023-04-06T03:57:07;13.60;;;7.28;;
52057;SDS011;38063;53.210;6.504;2023-04-06T03:59:33;19.65;;;8.10;;
52057;SDS011;38063;53.210;6.504;2023-04-06T04:01:58;12.02;;;7.07;;
52057;SDS011;38063;53.210;6.504;2023-04-06T04:04:24;16.30;;;8.48;;
52057;SDS011;38063;53.210;6.504;2023-04-06T04:06:50;11.43;;;6.88;;
52057;SDS011;38063;53.210;6.504;2023-04-06T04:09:15;9.82;;;7.03;;
52057;SDS011;38063;53.210;6.504;2023-04-06T04:11:41;10.25;;;7.07;;
52057;SDS011;38063;53.210;6.504;2023-04-06T04:14:07;12.48;;;7.47;;
52057;SDS011;38063;53.210;6.504;2023-04-06T04:16:33;13.27;;;7.32;;
52057;SDS011;38063;53.210;6.504;2023-04-06T04:18:58;11.70;;;7.07;;
52057;SDS011;38063;53.210;6.504;2023-04-06T04:21:24;14.07;;;7.95;;
52057;SDS011;38063;53.210;6.504;2023-04-06T04:23:51;11.15;;;7.13;;
52057;SDS011;38063;53.210;6.504;2023-04-06T04:26:17;10.18;;;6.82;;
52057;SDS011;38063;53.210;6.504;2023-04-06T04:28:43;11.38;;;7.03;;
52057;SDS011;38063;53.210;6.504;2023-04-06T04:31:09;9.68;;;6.22;;
52057;SDS011;38063;53.210;6.504;2023-04-06T04:33:35;10.45;;;6.53;;
52057;SDS011;38063;53.210;6.504;2023-04-06T04:36:01;9.13;;;6.40;;
52057;SDS011;38063;53.210;6.504;2023-04-06T04:38:27;10.75;;;7.10;;
52057;SDS011;38063;53.210;6.504;2023-04-06T04:40:52;11.00;;;7.45;;
52057;SDS011;38063;53.210;6.504;2023-04-06T04:43:18;10.60;;;6.60;;
52057;SDS011;38063;53.210;6.504;2023-04-06T04:45:44;9.55;;;6.75;;
52057;SDS011;38063;53.210;6.504;2023-04-06T04:48:09;11.20;;;7.15;;
52057;SDS011;38063;53.210;6.504;2023-04-06T04:50:35;10.65;;;7.10;;
52057;SDS011;38063;53.210;6.504;2023-04-06T04:53:01;10.88;;;7.03;;
52057;SDS011;38063;53.210;6.504;2023-04-06T04:55:30;14.05;;;6.90;;
52057;SDS011;38063;53.210;6.504;2023-04-06T04:57:55;12.77;;;7.50;;
52057;SDS011;38063;53.210;6.504;2023-04-06T05:00:21;14.75;;;7.55;;
52057;SDS011;38063;53.210;6.504;2023-04-06T05:02:47;8.73;;;6.45;;
52057;SDS011;38063;53.210;6.504;2023-04-06T05:05:13;10.45;;;6.95;;
52057;SDS011;38063;53.210;6.504;2023-04-06T05:07:39;12.43;;;6.88;;
52057;SDS011;38063;53.210;6.504;2023-04-06T05:10:05;11.32;;;6.88;;
52057;SDS011;38063;53.210;6.504;2023-04-06T05:12:31;12.90;;;7.40;;
52057;SDS011;38063;53.210;6.504;2023-04-06T05:14:56;11.55;;;6.70;;
52057;SDS011;38063;53.210;6.504;2023-04-06T05:17:22;12.82;;;6.65;;
52057;SDS011;38063;53.210;6.504;2023-04-06T05:19:48;13.65;;;7.15;;
52057;SDS011;38063;53.210;6.504;2023-04-06T05:22:14;16.42;;;7.20;;
52057;SDS011;38063;53.210;6.504;2023-04-06T05:24:42;14.90;;;7.60;;
52057;SDS011;38063;53.210;6.504;2023-04-06T05:27:08;10.95;;;7.50;;
52057;SDS011;38063;53.210;6.504;2023-04-06T05:29:34;12.60;;;7.20;;
52057;SDS011;38063;53.210;6.504;2023-04-06T05:32:00;12.32;;;8.07;;
52057;SDS011;38063;53.210;6.504;2023-04-06T05:34:26;12.60;;;7.32;;
52057;SDS011;38063;53.210;6.504;2023-04-06T05:36:52;14.40;;;7.63;;
52057;SDS011;38063;53.210;6.504;2023-04-06T05:39:18;12.35;;;7.20;;
52057;SDS011;38063;53.210;6.504;2023-04-06T05:41:43;10.40;;;7.10;;
52057;SDS011;38063;53.210;6.504;2023-04-06T05:44:10;11.30;;;6.20;;
52057;SDS011;38063;53.210;6.504;2023-04-06T05:46:36;12.40;;;7.15;;
52057;SDS011;38063;53.210;6.504;2023-04-06T05:49:01;12.77;;;6.80;;
52057;SDS011;38063;53.210;6.504;2023-04-06T05:51:27;10.23;;;6.85;;
52057;SDS011;38063;53.210;6.504;2023-04-06T05:53:53;11.18;;;7.53;;
52057;SDS011;38063;53.210;6.504;2023-04-06T05:56:18;10.45;;;7.30;;
52057;SDS011;38063;53.210;6.504;2023-04-06T05:58:44;14.40;;;7.93;;
52057;SDS011;38063;53.210;6.504;2023-04-06T06:01:10;11.70;;;7.32;;
52057;SDS011;38063;53.210;6.504;2023-04-06T06:03:35;14.80;;;7.65;;
52057;SDS011;38063;53.210;6.504;2023-04-06T06:06:02;11.90;;;7.32;;
52057;SDS011;38063;53.210;6.504;2023-04-06T06:08:28;12.55;;;7.85;;
52057;SDS011;38063;53.210;6.504;2023-04-06T06:10:54;11.02;;;7.70;;
52057;SDS011;38063;53.210;6.504;2023-04-06T06:13:21;12.98;;;7.40;;
52057;SDS011;38063;53.210;6.504;2023-04-06T06:15:47;11.38;;;7.00;;
52057;SDS011;38063;53.210;6.504;2023-04-06T06:18:13;13.90;;;8.75;;
52057;SDS011;38063;53.210;6.504;2023-04-06T06:20:39;11.70;;;7.38;;
52057;SDS011;38063;53.210;6.504;2023-04-06T06:23:04;12.40;;;7.22;;
52057;SDS011;38063;53.210;6.504;2023-04-06T06:25:30;10.05;;;7.07;;
52057;SDS011;38063;53.210;6.504;2023-04-06T06:27:56;13.18;;;7.15;;
52057;SDS011;38063;53.210;6.504;2023-04-06T06:30:22;14.73;;;7.03;;
52057;SDS011;38063;53.210;6.504;2023-04-06T06:32:48;13.75;;;7.63;;
52057;SDS011;38063;53.210;6.504;2023-04-06T06:35:14;11.05;;;7.40;;
52057;SDS011;38063;53.210;6.504;2023-04-06T06:37:40;9.98;;;7.38;;
52057;SDS011;38063;53.210;6.504;2023-04-06T06:40:06;11.77;;;7.30;;
52057;SDS011;38063;53.210;6.504;2023-04-06T06:42:34;11.82;;;7.28;;
52057;SDS011;38063;53.210;6.504;2023-04-06T06:45:00;11.63;;;7.15;;
52057;SDS011;38063;53.210;6.504;2023-04-06T06:47:25;13.38;;;7.47;;
52057;SDS011;38063;53.210;6.504;2023-04-06T06:49:51;12.73;;;8.82;;
52057;SDS011;38063;53.210;6.504;2023-04-06T06:52:17;11.63;;;7.43;;
52057;SDS011;38063;53.210;6.504;2023-04-06T06:54:42;10.80;;;7.60;;
52057;SDS011;38063;53.210;6.504;2023-04-06T06:57:08;12.13;;;6.60;;
52057;SDS011;38063;53.210;6.504;2023-04-06T06:59:34;13.02;;;7.70;;
52057;SDS011;38063;53.210;6.504;2023-04-06T07:02:00;12.85;;;8.45;;
52057;SDS011;38063;53.210;6.504;2023-04-06T07:04:25;11.45;;;7.43;;
52057;SDS011;38063;53.210;6.504;2023-04-06T07:06:51;11.35;;;7.82;;
52057;SDS011;38063;53.210;6.504;2023-04-06T07:09:17;12.48;;;7.10;;
52057;SDS011;38063;53.210;6.504;2023-04-06T07:11:43;17.52;;;7.88;;
52057;SDS011;38063;53.210;6.504;2023-04-06T07:14:09;13.73;;;7.95;;
52057;SDS011;38063;53.210;6.504;2023-04-06T07:16:36;11.50;;;7.30;;
52057;SDS011;38063;53.210;6.504;2023-04-06T07:19:02;16.00;;;8.45;;
52057;SDS011;38063;53.210;6.504;2023-04-06T07:21:28;11.25;;;7.25;;
52057;SDS011;38063;53.210;6.504;2023-04-06T07:23:53;13.63;;;8.05;;
52057;SDS011;38063;53.210;6.504;2023-04-06T07:26:19;13.93;;;7.65;;
52057;SDS011;38063;53.210;6.504;2023-04-06T07:28:45;17.48;;;7.78;;
52057;SDS011;38063;53.210;6.504;2023-04-06T07:31:11;12.13;;;7.55;;
52057;SDS011;38063;53.210;6.504;2023-04-06T07:33:36;14.15;;;8.05;;
52057;SDS011;38063;53.210;6.504;2023-04-06T07:36:02;12.75;;;6.90;;
52057;SDS011;38063;53.210;6.504;2023-04-06T07:38:28;13.75;;;7.38;;
52057;SDS011;38063;53.210;6.504;2023-04-06T07:40:54;10.52;;;7.43;;
52057;SDS011;38063;53.210;6.504;2023-04-06T07:43:20;12.68;;;7.70;;
52057;SDS011;38063;53.210;6.504;2023-04-06T07:45:46;12.27;;;8.00;;
52057;SDS011;38063;53.210;6.504;2023-04-06T07:48:11;12.70;;;7.75;;
52057;SDS011;38063;53.210;6.504;2023-04-06T07:50:37;11.82;;;7.45;;
52057;SDS011;38063;53.210;6.504;2023-04-06T07:53:03;12.85;;;7.70;;
52057;SDS011;38063;53.210;6.504;2023-04-06T07:55:29;12.93;;;7.32;;
52057;SDS011;38063;53.210;6.504;2023-04-06T07:57:55;12.90;;;7.75;;
52057;SDS011;38063;53.210;6.504;2023-04-06T08:00:20;10.68;;;7.00;;
52057;SDS011;38063;53.210;6.504;2023-04-06T08:02:46;12.40;;;7.18;;
52057;SDS011;38063;53.210;6.504;2023-04-06T08:05:12;11.93;;;7.13;;
52057;SDS011;38063;53.210;6.504;2023-04-06T08:07:38;12.73;;;7.38;;
52057;SDS011;38063;53.210;6.504;2023-04-06T08:10:04;11.60;;;7.53;;
52057;SDS011;38063;53.210;6.504;2023-04-06T08:12:29;14.20;;;7.95;;
52057;SDS011;38063;53.210;6.504;2023-04-06T08:14:55;11.38;;;7.10;;
52057;SDS011;38063;53.210;6.504;2023-04-06T08:17:21;10.20;;;6.97;;
52057;SDS011;38063;53.210;6.504;2023-04-06T08:19:47;10.48;;;6.80;;
52057;SDS011;38063;53.210;6.504;2023-04-06T08:22:13;10.77;;;7.40;;
52057;SDS011;38063;53.210;6.504;2023-04-06T08:24:39;10.57;;;7.75;;
52057;SDS011;38063;53.210;6.504;2023-04-06T08:27:04;9.93;;;7.18;;
52057;SDS011;38063;53.210;6.504;2023-04-06T08:29:30;14.02;;;7.45;;
52057;SDS011;38063;53.210;6.504;2023-04-06T08:31:56;12.60;;;6.85;;
52057;SDS011;38063;53.210;6.504;2023-04-06T08:34:21;12.60;;;7.53;;
52057;SDS011;38063;53.210;6.504;2023-04-06T08:36:48;11.80;;;7.75;;
52057;SDS011;38063;53.210;6.504;2023-04-06T08:39:13;10.85;;;7.47;;
52057;SDS011;38063;53.210;6.504;2023-04-06T08:41:42;14.80;;;7.65;;
52057;SDS011;38063;53.210;6.504;2023-04-06T08:44:09;11.95;;;7.68;;
52057;SDS011;38063;53.210;6.504;2023-04-06T08:46:35;13.32;;;7.22;;
52057;SDS011;38063;53.210;6.504;2023-04-06T08:49:01;12.63;;;8.15;;
52057;SDS011;38063;53.210;6.504;2023-04-06T08:51:28;11.80;;;7.25;;
52057;SDS011;38063;53.210;6.504;2023-04-06T08:54:00;12.35;;;7.65;;
52057;SDS011;38063;53.210;6.504;2023-04-06T08:56:27;14.68;;;7.95;;
52057;SDS011;38063;53.210;6.504;2023-04-06T08:58:54;9.88;;;6.78;;
52057;SDS011;38063;53.210;6.504;2023-04-06T09:01:21;12.65;;;7.32;;
52057;SDS011;38063;53.210;6.504;2023-04-06T09:03:50;11.13;;;7.20;;
52057;SDS011;38063;53.210;6.504;2023-04-06T09:06:18;11.15;;;7.40;;
52057;SDS011;38063;53.210;6.504;2023-04-06T09:08:44;10.85;;;7.78;;
52057;SDS011;38063;53.210;6.504;2023-04-06T09:11:10;14.00;;;7.43;;
52057;SDS011;38063;53.210;6.504;2023-04-06T09:16:15;10.95;;;7.70;;
52057;SDS011;38063;53.210;6.504;2023-04-06T09:18:41;13.35;;;7.15;;
52057;SDS011;38063;53.210;6.504;2023-04-06T09:21:07;12.73;;;7.60;;
52057;SDS011;38063;53.210;6.504;2023-04-06T09:23:34;15.80;;;7.88;;
52057;SDS011;38063;53.210;6.504;2023-04-06T09:26:11;11.35;;;7.55;;
52057;SDS011;38063;53.210;6.504;2023-04-06T09:28:42;13.43;;;8.48;;
52057;SDS011;38063;53.210;6.504;2023-04-06T09:31:26;14.63;;;8.43;;
52057;SDS011;38063;53.210;6.504;2023-04-06T09:33:53;11.18;;;8.23;;
52057;SDS011;38063;53.210;6.504;2023-04-06T09:36:19;13.70;;;8.00;;
52057;SDS011;38063;53.210;6.504;2023-04-06T09:38:55;11.88;;;8.23;;
52057;SDS011;38063;53.210;6.504;2023-04-06T09:41:32;12.25;;;8.32;;
52057;SDS011;38063;53.210;6.504;2023-04-06T09:46:33;12.52;;;8.30;;
52057;SDS011;38063;53.210;6.504;2023-04-06T09:49:04;15.50;;;9.35;;
52057;SDS011;38063;53.210;6.504;2023-04-06T09:51:53;12.15;;;8.18;;
52057;SDS011;38063;53.210;6.504;2023-04-06T09:54:21;15.27;;;8.55;;
52057;SDS011;38063;53.210;6.504;2023-04-06T09:56:53;13.75;;;9.07;;
52057;SDS011;38063;53.210;6.504;2023-04-06T09:59:28;18.00;;;10.75;;
52057;SDS011;38063;53.210;6.504;2023-04-06T10:02:02;17.02;;;10.85;;
52057;SDS011;38063;53.210;6.504;2023-04-06T10:07:05;18.52;;;10.48;;
52057;SDS011;38063;53.210;6.504;2023-04-06T10:09:32;16.20;;;10.88;;
52057;SDS011;38063;53.210;6.504;2023-04-06T10:12:05;18.73;;;11.07;;
52057;SDS011;38063;53.210;6.504;2023-04-06T10:14:34;15.77;;;10.88;;
52057;SDS011;38063;53.210;6.504;2023-04-06T10:17:03;17.33;;;10.90;;
52057;SDS011;38063;53.210;6.504;2023-04-06T10:22:09;19.02;;;11.57;;
52057;SDS011;38063;53.210;6.504;2023-04-06T10:24:43;16.63;;;11.50;;
52057;SDS011;38063;53.210;6.504;2023-04-06T10:27:09;21.00;;;12.10;;
52057;SDS011;38063;53.210;6.504;2023-04-06T10:29:46;18.63;;;12.10;;
52057;SDS011;38063;53.210;6.504;2023-04-06T10:32:13;20.02;;;12.05;;
52057;SDS011;38063;53.210;6.504;2023-04-06T10:34:39;20.20;;;12.27;;
52057;SDS011;38063;53.210;6.504;2023-04-06T10:37:15;18.70;;;12.48;;
52057;SDS011;38063;53.210;6.504;2023-04-06T10:40:01;20.75;;;12.80;;
52057;SDS011;38063;53.210;6.504;2023-04-06T10:42:37;20.52;;;12.20;;
52057;SDS011;38063;53.210;6.504;2023-04-06T10:45:06;20.75;;;12.63;;
52057;SDS011;38063;53.210;6.504;2023-04-06T10:47:43;21.83;;;12.15;;
52057;SDS011;38063;53.210;6.504;2023-04-06T10:50:10;19.63;;;13.25;;
52057;SDS011;38063;53.210;6.504;2023-04-06T10:52:39;24.88;;;14.70;;
52057;SDS011;38063;53.210;6.504;2023-04-06T10:55:05;25.60;;;14.82;;
52057;SDS011;38063;53.210;6.504;2023-04-06T10:57:31;26.38;;;17.05;;
52057;SDS011;38063;53.210;6.504;2023-04-06T10:59:57;25.70;;;16.02;;
52057;SDS011;38063;53.210;6.504;2023-04-06T11:02:23;24.67;;;16.10;;
52057;SDS011;38063;53.210;6.504;2023-04-06T11:04:58;25.25;;;16.90;;
52057;SDS011;38063;53.210;6.504;2023-04-06T11:07:24;27.33;;;16.05;;
52057;SDS011;38063;53.210;6.504;2023-04-06T11:09:52;24.85;;;16.70;;
52057;SDS011;38063;53.210;6.504;2023-04-06T11:12:27;26.40;;;18.10;;
52057;SDS011;38063;53.210;6.504;2023-04-06T11:14:58;30.75;;;17.88;;
52057;SDS011;38063;53.210;6.504;2023-04-06T11:17:35;29.65;;;18.13;;
52057;SDS011;38063;53.210;6.504;2023-04-06T11:20:02;29.17;;;18.92;;
52057;SDS011;38063;53.210;6.504;2023-04-06T11:22:29;30.88;;;19.90;;
52057;SDS011;38063;53.210;6.504;2023-04-06T11:25:05;28.60;;;19.55;;
52057;SDS011;38063;53.210;6.504;2023-04-06T11:27:32;30.25;;;18.27;;
52057;SDS011;38063;53.210;6.504;2023-04-06T11:29:59;30.65;;;19.58;;
52057;SDS011;38063;53.210;6.504;2023-04-06T11:32:26;31.60;;;19.83;;
52057;SDS011;38063;53.210;6.504;2023-04-06T11:34:52;33.15;;;19.45;;
52057;SDS011;38063;53.210;6.504;2023-04-06T11:37:18;27.40;;;18.85;;
52057;SDS011;38063;53.210;6.504;2023-04-06T11:42:20;26.17;;;18.38;;
52057;SDS011;38063;53.210;6.504;2023-04-06T11:44:51;27.15;;;17.83;;
52057;SDS011;38063;53.210;6.504;2023-04-06T11:47:27;32.47;;;17.98;;
52057;SDS011;38063;53.210;6.504;2023-04-06T11:49:54;27.90;;;18.55;;
52057;SDS011;38063;53.210;6.504;2023-04-06T11:52:21;31.30;;;18.90;;
52057;SDS011;38063;53.210;6.504;2023-04-06T11:54:49;26.23;;;18.13;;
52057;SDS011;38063;53.210;6.504;2023-04-06T11:57:16;28.75;;;18.27;;
52057;SDS011;38063;53.210;6.504;2023-04-06T11:59:42;23.98;;;16.35;;
52057;SDS011;38063;53.210;6.504;2023-04-06T12:02:08;27.00;;;17.88;;
52057;SDS011;38063;53.210;6.504;2023-04-06T12:04:35;29.30;;;18.17;;
52057;SDS011;38063;53.210;6.504;2023-04-06T12:07:00;26.25;;;17.20;;
52057;SDS011;38063;53.210;6.504;2023-04-06T12:09:27;29.00;;;19.05;;
52057;SDS011;38063;53.210;6.504;2023-04-06T12:11:52;25.02;;;18.23;;
52057;SDS011;38063;53.210;6.504;2023-04-06T12:14:18;24.83;;;17.58;;
52057;SDS011;38063;53.210;6.504;2023-04-06T12:16:44;28.42;;;19.17;;
52057;SDS011;38063;53.210;6.504;2023-04-06T12:19:10;27.92;;;18.20;;
52057;SDS011;38063;53.210;6.504;2023-04-06T12:21:35;32.97;;;19.95;;
52057;SDS011;38063;53.210;6.504;2023-04-06T12:24:02;27.13;;;18.88;;
52057;SDS011;38063;53.210;6.504;2023-04-06T12:26:29;29.63;;;19.33;;
52057;SDS011;38063;53.210;6.504;2023-04-06T12:28:56;31.58;;;18.10;;
52057;SDS011;38063;53.210;6.504;2023-04-06T12:31:23;28.20;;;19.33;;
52057;SDS011;38063;53.210;6.504;2023-04-06T12:33:50;31.27;;;20.20;;
52057;SDS011;38063;53.210;6.504;2023-04-06T12:36:17;32.13;;;19.65;;
52057;SDS011;38063;53.210;6.504;2023-04-06T12:38:47;32.53;;;19.95;;
52057;SDS011;38063;53.210;6.504;2023-04-06T12:41:14;29.35;;;20.05;;
52057;SDS011;38063;53.210;6.504;2023-04-06T12:43:40;31.77;;;20.55;;
52057;SDS011;38063;53.210;6.504;2023-04-06T12:46:07;33.25;;;19.88;;
52057;SDS011;38063;53.210;6.504;2023-04-06T12:48:33;27.80;;;18.77;;
52057;SDS011;38063;53.210;6.504;2023-04-06T12:50:59;30.05;;;19.75;;
52057;SDS011;38063;53.210;6.504;2023-04-06T12:53:26;30.85;;;19.35;;
52057;SDS011;38063;53.210;6.504;2023-04-06T12:55:56;30.23;;;20.02;;
52057;SDS011;38063;53.210;6.504;2023-04-06T12:58:22;29.17;;;19.00;;
52057;SDS011;38063;53.210;6.504;2023-04-06T13:00:49;27.20;;;18.88;;
52057;SDS011;38063;53.210;6.504;2023-04-06T13:03:15;27.55;;;19.02;;
52057;SDS011;38063;53.210;6.504;2023-04-06T13:05:51;27.85;;;18.42;;
52057;SDS011;38063;53.210;6.504;2023-04-06T13:08:17;30.58;;;18.58;;
52057;SDS011;38063;53.210;6.504;2023-04-06T13:10:48;30.10;;;19.17;;
52057;SDS011;38063;53.210;6.504;2023-04-06T13:13:17;28.58;;;19.00;;
52057;SDS011;38063;53.210;6.504;2023-04-06T13:15:45;27.85;;;19.58;;
52057;SDS011;38063;53.210;6.504;2023-04-06T13:18:11;28.65;;;19.05;;
52057;SDS011;38063;53.210;6.504;2023-04-06T13:20:37;28.27;;;19.25;;
52057;SDS011;38063;53.210;6.504;2023-04-06T13:23:02;28.60;;;18.75;;
52057;SDS011;38063;53.210;6.504;2023-04-06T13:25:29;27.33;;;17.98;;
52057;SDS011;38063;53.210;6.504;2023-04-06T13:27:55;31.23;;;18.88;;
52057;SDS011;38063;53.210;6.504;2023-04-06T13:30:20;28.73;;;19.20;;
52057;SDS011;38063;53.210;6.504;2023-04-06T13:32:46;27.30;;;18.75;;
52057;SDS011;38063;53.210;6.504;2023-04-06T13:35:12;27.77;;;18.33;;
52057;SDS011;38063;53.210;6.504;2023-04-06T13:37:38;30.25;;;18.25;;
52057;SDS011;38063;53.210;6.504;2023-04-06T13:40:04;27.45;;;18.77;;
52057;SDS011;38063;53.210;6.504;2023-04-06T13:42:30;25.80;;;16.52;;
52057;SDS011;38063;53.210;6.504;2023-04-06T13:44:57;26.75;;;16.33;;
52057;SDS011;38063;53.210;6.504;2023-04-06T13:47:23;19.88;;;14.38;;
52057;SDS011;38063;53.210;6.504;2023-04-06T13:49:51;25.80;;;15.50;;
52057;SDS011;38063;53.210;6.504;2023-04-06T13:52:18;23.10;;;13.63;;
52057;SDS011;38063;53.210;6.504;2023-04-06T13:54:44;19.88;;;13.38;;
52057;SDS011;38063;53.210;6.504;2023-04-06T13:57:11;20.85;;;13.40;;
52057;SDS011;38063;53.210;6.504;2023-04-06T13:59:37;20.50;;;12.50;;
52057;SDS011;38063;53.210;6.504;2023-04-06T14:02:04;15.65;;;11.45;;
52057;SDS011;38063;53.210;6.504;2023-04-06T14:04:31;18.55;;;12.38;;
52057;SDS011;38063;53.210;6.504;2023-04-06T14:06:57;19.88;;;12.00;;
52057;SDS011;38063;53.210;6.504;2023-04-06T14:09:23;17.88;;;12.10;;
52057;SDS011;38063;53.210;6.504;2023-04-06T14:11:49;17.90;;;12.23;;
52057;SDS011;38063;53.210;6.504;2023-04-06T14:14:15;20.95;;;12.63;;
52057;SDS011;38063;53.210;6.504;2023-04-06T14:16:42;18.02;;;12.23;;
52057;SDS011;38063;53.210;6.504;2023-04-06T14:19:11;18.80;;;12.23;;
52057;SDS011;38063;53.210;6.504;2023-04-06T14:21:39;20.33;;;12.77;;
52057;SDS011;38063;53.210;6.504;2023-04-06T14:24:08;17.58;;;12.13;;
52057;SDS011;38063;53.210;6.504;2023-04-06T14:26:37;18.60;;;12.13;;
52057;SDS011;38063;53.210;6.504;2023-04-06T14:29:04;19.77;;;13.68;;
52057;SDS011;38063;53.210;6.504;2023-04-06T14:31:30;24.17;;;13.77;;
52057;SDS011;38063;53.210;6.504;2023-04-06T14:33:56;20.83;;;13.05;;
52057;SDS011;38063;53.210;6.504;2023-04-06T14:36:23;19.92;;;13.73;;
52057;SDS011;38063;53.210;6.504;2023-04-06T14:38:49;19.42;;;13.10;;
52057;SDS011;38063;53.210;6.504;2023-04-06T14:41:18;21.15;;;12.63;;